.
WxDataArchive / Data Records for 2008-01-13
2008-01-12 January 2008 2008-01-14

Data Records for Sunday, 13 January 2008

Time	Temp	Chill	HIndex	Humid	Dewpt	 Wind 	HiWind	WindDir	Rain 	Barom 
-----	----	-----	------	-----	-----	------	------	-------	-----	----- 
00:00	31.0	31.0	31.0	89	28.1	0	0	---	0.00	29.989 
00:05	30.9	30.9	30.9	89	28.0	0	0	---	0.00	29.986 
00:10	30.9	30.9	30.9	90	28.3	0	1	90	0.00	29.984 
00:15	30.7	30.7	30.7	90	28.1	0	0	---	0.00	29.985 
00:20	30.7	30.7	30.7	90	28.1	0	0	---	0.00	29.984 
00:25	30.9	30.9	30.9	91	28.6	0	1	90	0.00	29.980 
00:30	31.0	31.0	31.0	91	28.7	0	1	90	0.00	29.981 
00:35	31.3	31.3	31.3	91	29.0	0	1	90	0.00	29.979 
00:40	31.5	31.5	31.5	90	28.9	0	2	90	0.00	29.978 
00:45	31.8	31.8	31.8	90	29.2	1	2	90	0.00	29.977 
00:50	31.9	31.9	31.9	89	29.0	1	3	90	0.00	29.974 
00:55	32.2	32.2	32.2	89	29.3	1	3	90	0.00	29.970 
01:00	32.2	32.2	32.2	89	29.3	0	2	90	0.00	29.969 
01:05	32.4	32.4	32.4	88	29.3	0	1	90	0.00	29.968 
01:10	32.4	32.4	32.4	88	29.3	0	1	90	0.00	29.968 
01:15	32.4	32.4	32.4	88	29.3	0	1	90	0.00	29.970 
01:20	32.4	32.4	32.4	88	29.3	0	1	90	0.00	29.968 
01:25	32.4	32.4	32.4	88	29.3	0	1	90	0.00	29.969 
01:30	32.4	32.4	32.4	88	29.3	0	1	90	0.00	29.968 
01:35	32.4	32.4	32.4	88	29.3	0	1	90	0.00	29.969 
01:40	32.4	32.4	32.4	89	29.5	0	1	90	0.00	29.971 
01:45	32.4	32.4	32.4	89	29.5	0	0	---	0.00	29.971 
01:50	32.4	32.4	32.4	89	29.5	0	0	---	0.00	29.970 
01:55	32.5	32.5	32.5	89	29.6	0	1	90	0.00	29.967 
02:00	32.5	32.5	32.5	88	29.3	0	1	90	0.00	29.967 
02:05	32.7	32.7	32.7	88	29.5	0	1	90	0.00	29.963 
02:10	32.7	32.7	32.7	88	29.5	1	2	90	0.00	29.960 
02:15	32.8	32.8	32.8	88	29.6	0	2	90	0.00	29.959 
02:20	32.8	32.8	32.8	88	29.6	1	2	90	0.00	29.958 
02:25	32.8	32.8	32.8	88	29.6	1	3	90	0.00	29.959 
02:30	32.8	32.8	32.8	88	29.6	1	3	90	0.00	29.959 
02:35	32.8	32.8	32.8	88	29.6	1	2	90	0.00	29.959 
02:40	32.8	32.8	32.8	88	29.6	1	2	90	0.00	29.960 
02:45	32.8	32.8	32.8	88	29.6	1	3	112	0.00	29.960 
02:50	32.8	32.8	32.8	88	29.6	1	2	112	0.00	29.959 
02:55	32.7	32.7	32.7	88	29.5	2	4	112	0.00	29.959 
03:00	32.7	32.7	32.7	88	29.5	1	3	90	0.00	29.958 
03:05	32.7	32.7	32.7	88	29.5	2	3	90	0.00	29.958 
03:10	32.7	32.7	32.7	88	29.5	1	4	112	0.00	29.958 
03:15	32.7	32.7	32.7	88	29.5	1	3	112	0.00	29.958 
03:20	32.5	32.5	32.5	88	29.3	1	3	135	0.00	29.957 
03:25	32.5	32.5	32.5	88	29.3	1	3	135	0.00	29.955 
03:30	32.5	32.5	32.5	89	29.6	0	2	135	0.00	29.954 
03:35	32.4	32.4	32.4	89	29.5	0	3	135	0.00	29.952 
03:40	32.4	32.4	32.4	89	29.5	0	2	135	0.00	29.947 
03:45	32.2	32.2	32.2	89	29.3	0	1	135	0.00	29.944 
03:50	32.2	32.2	32.2	89	29.3	0	1	135	0.00	29.943 
03:55	32.1	32.1	32.1	89	29.2	0	2	135	0.00	29.942 
04:00	32.1	32.1	32.1	89	29.2	0	2	135	0.00	29.941 
04:05	32.1	32.1	32.1	90	29.5	0	1	135	0.00	29.939 
04:10	31.9	31.9	31.9	90	29.3	0	1	135	0.00	29.934 
04:15	32.1	32.1	32.1	90	29.5	1	3	135	0.00	29.931 
04:20	32.1	32.1	32.1	90	29.5	1	3	135	0.00	29.929 
04:25	32.2	32.2	32.2	90	29.6	1	2	135	0.00	29.929 
04:30	32.4	32.4	32.4	90	29.8	0	2	135	0.00	29.928 
04:35	32.4	32.4	32.4	90	29.8	0	1	135	0.00	29.927 
04:40	32.4	32.4	32.4	90	29.8	0	0	---	0.00	29.926 
04:45	32.4	32.4	32.4	90	29.8	0	2	135	0.00	29.924 
04:50	32.4	32.4	32.4	90	29.8	0	1	135	0.00	29.922 
04:55	32.2	32.2	32.2	90	29.6	0	2	135	0.00	29.918 
05:00	32.2	32.2	32.2	90	29.6	0	1	135	0.00	29.915 
05:05	32.1	32.1	32.1	90	29.5	0	1	135	0.00	29.915 
05:10	31.9	31.9	31.9	90	29.3	0	2	135	0.00	29.914 
05:15	31.9	31.9	31.9	91	29.6	0	1	135	0.00	29.914 
05:20	31.8	31.8	31.8	91	29.5	0	1	135	0.00	29.914 
05:25	31.8	31.8	31.8	91	29.5	0	2	135	0.00	29.913 
05:30	31.8	31.8	31.8	91	29.5	1	2	135	0.00	29.913 
05:35	31.8	31.8	31.8	91	29.5	0	2	135	0.00	29.912 
05:40	31.8	31.8	31.8	91	29.5	0	1	135	0.00	29.912 
05:45	31.8	31.8	31.8	91	29.5	0	2	135	0.00	29.912 
05:50	31.8	31.8	31.8	91	29.5	0	1	135	0.00	29.912 
05:55	31.8	31.8	31.8	92	29.7	0	1	135	0.00	29.910 
06:00	31.8	31.8	31.8	92	29.7	0	1	135	0.00	29.906 
06:05	31.8	31.8	31.8	92	29.7	0	0	---	0.00	29.909 
06:10	31.8	31.8	31.8	92	29.7	0	1	135	0.00	29.909 
06:15	31.8	31.8	31.8	92	29.7	0	1	135	0.00	29.907 
06:20	31.8	31.8	31.8	92	29.7	0	0	---	0.00	29.906 
06:25	31.8	31.8	31.8	92	29.7	0	0	---	0.00	29.906 
06:30	31.8	31.8	31.8	92	29.7	0	2	135	0.00	29.905 
06:35	31.8	31.8	31.8	92	29.7	0	2	135	0.00	29.909 
06:40	31.9	31.9	31.9	92	29.8	1	2	135	0.00	29.910 
06:45	31.9	31.9	31.9	92	29.8	0	2	135	0.00	29.907 
06:50	31.9	31.9	31.9	92	29.8	0	2	135	0.00	29.909 
06:55	31.9	31.9	31.9	92	29.8	1	2	135	0.00	29.909 
07:00	31.9	31.9	31.9	92	29.8	0	2	135	0.00	29.908 
07:05	32.1	32.1	32.1	92	30.0	0	1	135	0.00	29.906 
07:10	32.1	32.1	32.1	92	30.0	0	1	135	0.00	29.903 
07:15	32.1	32.1	32.1	92	30.0	0	3	135	0.00	29.902 
07:20	32.1	32.1	32.1	92	30.0	0	0	---	0.00	29.902 
07:25	32.1	32.1	32.1	92	30.0	0	1	135	0.00	29.903 
07:30	32.1	32.1	32.1	92	30.0	0	1	135	0.00	29.903 
07:35	32.1	32.1	32.1	92	30.0	0	0	---	0.00	29.902 
07:40	32.1	32.1	32.1	92	30.0	0	0	---	0.00	29.901 
07:45	32.1	32.1	32.1	92	30.0	0	1	135	0.00	29.901 
07:50	32.1	32.1	32.1	92	30.0	0	1	135	0.00	29.900 
07:55	32.1	32.1	32.1	92	30.0	0	1	135	0.00	29.900 
08:00	31.9	31.9	31.9	92	29.8	0	1	135	0.00	29.900 
08:05	31.9	31.9	31.9	92	29.8	0	1	135	0.00	29.902 
08:10	31.9	31.9	31.9	92	29.8	0	1	135	0.00	29.903 
08:15	31.9	31.9	31.9	92	29.8	0	0	---	0.00	29.903 
08:20	31.9	31.9	31.9	92	29.8	0	1	135	0.00	29.906 
08:25	31.9	31.9	31.9	92	29.8	0	2	135	0.00	29.908 
08:30	32.1	32.1	32.1	92	30.0	1	2	135	0.00	29.910 
08:35	32.2	32.2	32.2	92	30.1	1	2	135	0.00	29.908 
08:40	32.4	32.4	32.4	92	30.3	1	3	90	0.00	29.909 
08:45	32.4	32.4	32.4	92	30.3	1	3	90	0.00	29.910 
08:50	32.5	32.5	32.5	92	30.4	1	3	90	0.00	29.910 
08:55	32.7	32.7	32.7	91	30.4	2	4	90	0.00	29.910 
09:00	32.8	32.8	32.8	91	30.5	1	3	112	0.00	29.914 
09:05	32.9	32.9	32.9	91	30.6	1	3	112	0.00	29.915 
09:10	32.9	32.9	32.9	90	30.3	1	3	112	0.00	29.917 
09:15	33.1	33.1	33.1	90	30.5	1	3	112	0.00	29.918 
09:20	33.2	33.2	33.2	90	30.6	1	3	112	0.00	29.917 
09:25	33.4	33.4	33.4	90	30.8	1	3	112	0.00	29.918 
09:30	33.5	33.5	33.5	89	30.6	1	2	112	0.00	29.918 
09:35	33.7	33.7	33.7	89	30.8	0	3	112	0.00	29.918 
09:40	34.0	34.0	34.0	89	31.1	0	1	112	0.00	29.918 
09:45	34.1	34.1	34.1	88	30.9	0	1	112	0.00	29.918 
09:50	34.3	34.3	34.3	88	31.1	0	1	112	0.00	29.918 
09:55	34.4	34.4	34.4	88	31.2	0	2	112	0.00	29.917 
10:00	34.6	34.6	34.6	88	31.4	0	1	112	0.00	29.915 
10:05	34.7	34.7	34.7	87	31.2	0	1	112	0.00	29.915 
10:10	34.9	34.9	34.9	87	31.4	0	2	112	0.00	29.914 
10:15	35.0	35.0	35.0	87	31.5	0	1	112	0.00	29.913 
10:20	35.3	35.3	35.3	87	31.8	0	1	112	0.00	29.913 
10:25	35.6	35.6	35.6	87	32.1	0	1	112	0.00	29.912 
10:30	35.8	35.8	35.8	86	32.0	0	1	112	0.00	29.913 
10:35	36.0	36.0	36.0	86	32.2	0	1	112	0.00	29.913 
10:40	36.2	36.2	36.2	86	32.4	0	2	112	0.00	29.912 
10:45	36.5	36.5	36.5	86	32.7	0	1	112	0.00	29.909 
10:50	36.8	36.8	36.8	86	33.0	0	1	112	0.00	29.907 
10:55	37.0	37.0	37.0	86	33.2	0	5	158	0.00	29.906 
11:00	37.0	37.0	37.0	85	32.9	1	5	270	0.00	29.903 
11:05	37.2	37.2	37.2	85	33.1	1	4	270	0.00	29.901 
11:10	37.3	37.3	37.3	85	33.2	1	4	270	0.00	29.899 
11:15	37.6	37.6	37.6	86	33.8	0	3	270	0.00	29.897 
11:20	37.9	37.9	37.9	86	34.1	0	3	270	0.00	29.896 
11:25	37.9	37.9	37.9	85	33.8	1	3	270	0.00	29.894 
11:30	37.9	37.9	37.9	84	33.5	1	3	248	0.00	29.888 
11:35	38.0	38.0	38.0	85	33.9	0	3	270	0.00	29.885 
11:40	38.3	38.3	38.3	86	34.5	0	1	270	0.00	29.884 
11:45	38.3	38.3	38.3	84	33.9	0	3	270	0.00	29.880 
11:50	38.3	38.3	38.3	83	33.6	1	2	270	0.00	29.878 
11:55	38.3	38.3	38.3	84	33.9	0	2	270	0.00	29.872 
12:00	38.5	38.5	38.5	84	34.1	0	2	270	0.00	29.869 
12:05	38.5	38.5	38.5	84	34.1	0	1	270	0.00	29.865 
12:10	38.6	38.6	38.6	83	33.9	1	2	270	0.00	29.864 
12:15	38.8	38.8	38.8	83	34.1	0	2	270	0.00	29.860 
12:20	38.9	38.9	38.9	83	34.2	0	2	270	0.00	29.858 
12:25	39.1	39.1	39.1	82	34.1	1	3	270	0.00	29.854 
12:30	39.2	39.2	39.2	83	34.5	0	3	270	0.00	29.852 
12:35	39.2	39.2	39.2	83	34.5	1	3	248	0.00	29.851 
12:40	39.1	39.1	39.1	83	34.4	1	5	248	0.00	29.849 
12:45	38.8	38.8	38.8	83	34.1	1	2	270	0.00	29.848 
12:50	38.5	38.5	38.5	83	33.8	2	4	248	0.00	29.847 
12:55	38.3	38.3	38.3	84	33.9	2	6	270	0.00	29.845 
13:00	38.0	38.0	38.0	85	33.9	2	6	248	0.00	29.845 
13:05	37.6	37.6	37.6	87	34.1	1	4	248	0.00	29.841 
13:10	37.2	37.2	37.2	87	33.7	2	5	248	0.00	29.839 
13:15	37.0	37.0	37.0	88	33.8	1	5	248	0.00	29.837 
13:20	36.8	36.8	36.8	88	33.6	2	7	270	0.00	29.836 
13:25	36.5	36.5	36.5	89	33.6	1	4	270	0.00	29.836 
13:30	36.3	36.3	36.3	89	33.4	2	5	248	0.00	29.837 
13:35	36.2	36.2	36.2	90	33.6	2	6	270	0.01	29.836 
13:40	36.0	36.0	36.0	90	33.4	1	3	248	0.00	29.835 
13:45	36.0	36.0	36.0	90	33.4	2	5	248	0.00	29.835 
13:50	35.9	35.9	35.9	91	33.5	1	4	248	0.00	29.834 
13:55	35.8	35.8	35.8	91	33.4	2	5	248	0.00	29.834 
14:00	35.9	35.9	35.9	91	33.5	1	4	270	0.00	29.834 
14:05	35.8	35.8	35.8	91	33.4	2	5	270	0.00	29.833 
14:10	35.6	35.6	35.6	91	33.2	1	5	248	0.00	29.834 
14:15	35.5	35.5	35.5	91	33.1	1	4	248	0.00	29.834 
14:20	35.3	35.3	35.3	92	33.2	1	3	270	0.00	29.834 
14:25	35.3	35.3	35.3	92	33.2	1	4	292	0.00	29.834 
14:30	35.0	35.0	35.0	92	32.9	1	5	248	0.00	29.833 
14:35	34.9	34.9	34.9	92	32.8	2	4	248	0.01	29.833 
14:40	34.9	34.9	34.9	92	32.8	1	4	248	0.00	29.832 
14:45	34.7	34.7	34.7	92	32.6	1	5	248	0.00	29.831 
14:50	34.6	34.6	34.6	92	32.5	2	6	270	0.00	29.831 
14:55	34.4	34.4	34.4	92	32.3	2	9	248	0.00	29.833 
15:00	34.3	34.3	34.3	92	32.2	2	5	270	0.00	29.835 
15:05	34.1	34.1	34.1	92	32.0	2	5	315	0.00	29.836 
15:10	34.1	34.1	34.1	92	32.0	2	5	315	0.00	29.838 
15:15	33.8	33.8	33.8	91	31.5	2	5	270	0.00	29.840 
15:20	33.5	33.5	33.5	91	31.2	2	4	270	0.00	29.842 
15:25	33.4	33.4	33.4	92	31.3	2	4	270	0.00	29.846 
15:30	33.4	33.4	33.4	92	31.3	1	2	270	0.00	29.849 
15:35	33.2	33.2	33.2	92	31.1	2	7	270	0.00	29.850 
15:40	33.1	33.1	33.1	92	31.0	2	4	270	0.00	29.850 
15:45	33.1	33.1	33.1	92	31.0	2	5	270	0.00	29.849 
15:50	33.1	33.1	33.1	92	31.0	2	4	270	0.00	29.851 
15:55	33.1	33.1	33.1	92	31.0	2	4	270	0.00	29.854 
16:00	33.1	33.1	33.1	92	31.0	1	4	270	0.00	29.855 
16:05	33.1	33.1	33.1	92	31.0	1	2	270	0.00	29.856 
16:10	33.2	33.2	33.2	92	31.1	1	4	270	0.00	29.857 
16:15	33.1	33.1	33.1	92	31.0	2	4	248	0.00	29.857 
16:20	33.1	33.1	33.1	91	30.8	2	5	270	0.00	29.857 
16:25	33.1	33.1	33.1	91	30.8	2	4	270	0.00	29.860 
16:30	33.1	33.1	33.1	91	30.8	1	3	248	0.00	29.861 
16:35	33.1	33.1	33.1	90	30.5	1	4	270	0.00	29.862 
16:40	33.2	33.2	33.2	90	30.6	1	3	248	0.00	29.866 
16:45	33.2	33.2	33.2	90	30.6	1	3	248	0.00	29.865 
16:50	33.2	33.2	33.2	90	30.6	0	3	248	0.00	29.867 
16:55	33.2	33.2	33.2	90	30.6	1	3	248	0.00	29.869 
17:00	33.2	33.2	33.2	89	30.3	1	4	248	0.00	29.869 
17:05	33.2	33.2	33.2	88	30.0	1	4	248	0.00	29.870 
17:10	33.2	33.2	33.2	88	30.0	1	4	270	0.00	29.871 
17:15	33.4	33.4	33.4	88	30.2	1	5	248	0.00	29.871 
17:20	33.4	33.4	33.4	87	30.0	1	5	248	0.00	29.871 
17:25	33.4	33.4	33.4	87	30.0	2	5	248	0.00	29.872 
17:30	33.2	33.2	33.2	87	29.8	2	6	248	0.00	29.872 
17:35	33.2	33.2	33.2	87	29.8	1	5	248	0.00	29.873 
17:40	33.2	33.2	33.2	86	29.5	1	5	248	0.00	29.875 
17:45	33.2	33.2	33.2	86	29.5	2	6	248	0.00	29.877 
17:50	33.2	33.2	33.2	85	29.2	3	7	270	0.00	29.880 
17:55	33.2	33.2	33.2	84	28.9	2	3	270	0.00	29.884 
18:00	33.1	33.1	33.1	85	29.1	1	4	270	0.00	29.885 
18:05	33.1	33.1	33.1	85	29.1	2	4	248	0.00	29.886 
18:10	33.1	33.1	33.1	84	28.8	2	6	248	0.00	29.886 
18:15	33.1	33.1	33.1	85	29.1	0	2	248	0.00	29.887 
18:20	33.1	33.1	33.1	85	29.1	1	3	248	0.00	29.887 
18:25	33.1	33.1	33.1	84	28.8	2	4	248	0.00	29.888 
18:30	33.1	33.1	33.1	84	28.8	2	5	248	0.00	29.888 
18:35	33.1	33.1	33.1	84	28.8	2	6	248	0.00	29.888 
18:40	32.9	32.9	32.9	84	28.6	1	6	248	0.00	29.890 
18:45	32.9	32.9	32.9	84	28.6	1	5	270	0.00	29.891 
18:50	32.9	32.9	32.9	84	28.6	3	6	270	0.00	29.893 
18:55	32.8	32.8	32.8	84	28.5	3	7	270	0.00	29.893 
19:00	32.8	32.8	32.8	84	28.5	2	6	248	0.00	29.894 
19:05	32.7	32.7	32.7	84	28.4	3	10	248	0.00	29.896 
19:10	32.7	32.7	32.7	84	28.4	3	7	248	0.00	29.896 
19:15	32.7	28.9	32.7	84	28.4	4	10	248	0.00	29.898 
19:20	32.7	32.7	32.7	84	28.4	2	6	248	0.00	29.899 
19:25	32.5	32.5	32.5	84	28.2	1	4	248	0.00	29.899 
19:30	32.5	32.5	32.5	84	28.2	2	10	248	0.00	29.900 
19:35	32.4	32.4	32.4	84	28.1	3	9	270	0.00	29.900 
19:40	32.4	32.4	32.4	84	28.1	3	7	248	0.00	29.901 
19:45	32.4	32.4	32.4	84	28.1	2	6	248	0.00	29.902 
19:50	32.4	32.4	32.4	84	28.1	3	9	248	0.00	29.902 
19:55	32.2	28.3	32.2	84	27.9	4	10	270	0.00	29.903 
20:00	32.1	32.1	32.1	85	28.1	3	10	270	0.00	29.904 
20:05	31.9	31.9	31.9	85	27.9	3	6	270	0.00	29.905 
20:10	31.9	31.9	31.9	85	27.9	2	6	270	0.00	29.905 
20:15	31.8	31.8	31.8	85	27.8	2	4	270	0.00	29.906 
20:20	31.8	31.8	31.8	86	28.1	2	5	270	0.00	29.908 
20:25	31.8	31.8	31.8	86	28.1	3	8	270	0.00	29.910 
20:30	31.8	31.8	31.8	86	28.1	2	10	270	0.00	29.909 
20:35	31.8	31.8	31.8	86	28.1	2	9	248	0.00	29.909 
20:40	31.8	31.8	31.8	86	28.1	2	9	248	0.00	29.908 
20:45	31.8	31.8	31.8	86	28.1	2	5	270	0.00	29.910 
20:50	31.6	31.6	31.6	86	27.9	2	5	248	0.00	29.909 
20:55	31.6	31.6	31.6	86	27.9	2	5	248	0.00	29.908 
21:00	31.6	31.6	31.6	86	27.9	2	4	270	0.00	29.909 
21:05	31.5	31.5	31.5	84	27.2	3	8	270	0.00	29.908 
21:10	31.5	31.5	31.5	83	26.9	2	4	270	0.00	29.908 
21:15	31.5	31.5	31.5	83	26.9	2	6	270	0.00	29.907 
21:20	31.5	31.5	31.5	83	26.9	1	4	270	0.00	29.907 
21:25	31.5	31.5	31.5	83	26.9	2	6	248	0.00	29.908 
21:30	31.5	31.5	31.5	83	26.9	1	6	270	0.00	29.908 
21:35	31.5	31.5	31.5	83	26.9	1	5	248	0.00	29.909 
21:40	31.5	31.5	31.5	83	26.9	3	7	270	0.00	29.910 
21:45	31.3	31.3	31.3	82	26.5	3	8	270	0.00	29.907 
21:50	31.3	31.3	31.3	82	26.5	2	6	270	0.00	29.909 
21:55	31.3	31.3	31.3	82	26.5	2	6	270	0.00	29.908 
22:00	31.2	31.2	31.2	82	26.4	2	6	270	0.00	29.908 
22:05	31.2	31.2	31.2	82	26.4	3	6	270	0.00	29.909 
22:10	31.2	31.2	31.2	82	26.4	2	5	270	0.00	29.908 
22:15	31.2	31.2	31.2	83	26.6	2	5	270	0.00	29.908 
22:20	31.0	31.0	31.0	83	26.5	2	9	270	0.00	29.906 
22:25	30.9	30.9	30.9	84	26.6	2	4	270	0.00	29.904 
22:30	30.9	30.9	30.9	84	26.6	2	7	248	0.00	29.903 
22:35	30.9	30.9	30.9	85	26.9	1	6	270	0.00	29.903 
22:40	30.9	30.9	30.9	85	26.9	3	7	248	0.00	29.903 
22:45	30.7	30.7	30.7	85	26.7	3	9	248	0.00	29.901 
22:50	30.7	30.7	30.7	86	27.0	2	9	248	0.00	29.906 
22:55	30.7	30.7	30.7	86	27.0	3	7	248	0.00	29.907 
23:00	30.7	30.7	30.7	86	27.0	2	6	270	0.00	29.905 
23:05	30.6	30.6	30.6	86	26.9	1	6	292	0.00	29.905 
23:10	30.6	30.6	30.6	86	26.9	3	6	248	0.00	29.904 
23:15	30.6	30.6	30.6	86	26.9	2	7	248	0.00	29.903 
23:20	30.6	30.6	30.6	86	26.9	1	4	248	0.00	29.904 
23:25	30.6	30.6	30.6	86	26.9	2	6	248	0.00	29.905 
23:30	30.6	30.6	30.6	86	26.9	3	7	270	0.00	29.906 
23:35	30.6	30.6	30.6	85	26.6	2	5	270	0.00	29.905 
23:40	30.6	30.6	30.6	85	26.6	2	7	248	0.00	29.907 
23:45	30.6	26.5	30.6	84	26.4	4	9	270	0.00	29.906 
23:50	30.4	26.2	30.4	83	25.9	4	7	270	0.00	29.905 
23:55	30.6	30.6	30.6	83	26.1	2	5	248	0.00	29.904 

CoCoRaHS
IN-AL-39
A2 Web Hosting
Creative Commons License
GoDaddy
Look for:

loaded 2017-10-16 20:15:02 • last modified 2010-11-18 10:43:29
Privacy PolicyDisclaimer
• wx.awcolley.com is powered by PmWiki v.2002016 •
• all content (unless otherwise noted) © 2017 A W Colley